Terminal Aerodrome Forecast
Issued by NWS

Current Version | Previous Version | Text Only | Print | Product List | Glossary On
Versions: 1 2 3 4 5 6 7 8 9 10 11 12 13
000
FTUS45 KABQ 171100
TAFTCC
TAF
KTCC 171128Z 1712/1812 03015KT P6SM SCT040
      TEMPO 1713/1716 BKN040
     FM171600 06012KT P6SM BKN050
     FM172000 11009KT P6SM SCT070
     FM180300 14008KT P6SM FEW100=

USA.gov is the U.S. government's official web portal to all federal, state and local government web resources and services.